Terminal Aerodrome Forecast
Issued by NWS

Home | Current Version | Previous Version | Text Only | Print | Product List | Glossary On
Versions: 1 2 3 4 5 6 7 8 9 10 11 12 13 14 15
000
FTUS46 KMTR 251729
TAFSJC
TAF
KSJC 251729Z 2518/2618 18007KT P6SM VCSH SCT020 BKN030 BKN050
     FM252000 21006KT P6SM VCSH SCT035 BKN050
     FM252300 24007KT P6SM VCSH SCT035 BKN050
     FM260100 30010KT P6SM BKN035 BKN050
     FM260600 VRB04KT P6SM BKN030 BKN050
     FM261700 30006KT P6SM SCT030 SCT050=

USA.gov is the U.S. government's official web portal to all federal, state and local government web resources and services.